UAL577 KEWR-KBOS
Flight info
| Callsign | UAL577 |
|---|---|
| Flight time | N/A |
| Altitude | 21000 |
| Route | MERIT ROBUC3 |
| Aircraft | B38M/M-SDE1FGHILORVWXY/HB1 |
Departure
| Time | 2026-05-04 18:22 |
|---|---|
| Airport | Newark Liberty International Airport (KEWR) |
Arrival
| Time | N/A |
|---|---|
| Airport | Boston Logan International Airport (KBOS) |
| Time | Latitude | Longitude | Altitude | Speed | Heading |
|---|---|---|---|---|---|
| 2026-05-04 17:55 | 40.69562 | -74.17239 | 27 ft | 0 kts | 317° |
| 2026-05-04 18:13 | 40.69559 | -74.17235 | 24 ft | 2 kts | 317° |
| 2026-05-04 18:14 | 40.69545 | -74.17218 | 28 ft | 3 kts | 316° |
| 2026-05-04 18:14 | 40.69532 | -74.17205 | 24 ft | 2 kts | 346° |
| 2026-05-04 18:14 | 40.69521 | -74.17202 | 26 ft | 3 kts | 335° |
| 2026-05-04 18:15 | 40.69517 | -74.17183 | 29 ft | 2 kts | 205° |
| 2026-05-04 18:15 | 40.69540 | -74.17171 | 24 ft | 1 kts | 200° |
| 2026-05-04 18:15 | 40.69541 | -74.17171 | 24 ft | 1 kts | 200° |
| 2026-05-04 18:18 | 40.69536 | -74.17172 | 24 ft | 2 kts | 185° |
| 2026-05-04 18:18 | 40.69513 | -74.17144 | 28 ft | 8 kts | 103° |
| 2026-05-04 18:19 | 40.69538 | -74.16967 | 24 ft | 7 kts | 72° |
| 2026-05-04 18:19 | 40.69587 | -74.16923 | 24 ft | 12 kts | 25° |
| 2026-05-04 18:19 | 40.69661 | -74.16845 | 26 ft | 16 kts | 66° |
| 2026-05-04 18:20 | 40.69703 | -74.16730 | 26 ft | 12 kts | 36° |
| 2026-05-04 18:20 | 40.69788 | -74.16675 | 23 ft | 15 kts | 25° |
| 2026-05-04 18:20 | 40.69893 | -74.16608 | 24 ft | 18 kts | 25° |
| 2026-05-04 18:20 | 40.69986 | -74.16542 | 25 ft | 10 kts | 48° |
| 2026-05-04 18:21 | 40.69983 | -74.16473 | 24 ft | 10 kts | 97° |
| 2026-05-04 18:21 | 40.69944 | -74.16417 | 21 ft | 10 kts | 191° |
| 2026-05-04 18:21 | 40.69919 | -74.16431 | 22 ft | 0 kts | 206° |
| 2026-05-04 18:21 | 40.69814 | -74.16498 | 27 ft | 50 kts | 205° |
| 2026-05-04 18:22 | 40.69291 | -74.16831 | 27 ft | 114 kts | 206° |
| 2026-05-04 18:22 | 40.68425 | -74.17363 | 143 ft | 152 kts | 208° |
| 2026-05-04 18:22 | 40.67422 | -74.17943 | 698 ft | 164 kts | 206° |
| 2026-05-04 18:22 | 40.66415 | -74.18524 | 1615 ft | 154 kts | 207° |
| 2026-05-04 18:23 | 40.65370 | -74.19125 | 2143 ft | 177 kts | 207° |
| 2026-05-04 18:23 | 40.64173 | -74.19874 | 2645 ft | 201 kts | 217° |
| 2026-05-04 18:23 | 40.63272 | -74.21340 | 3273 ft | 218 kts | 249° |
| 2026-05-04 18:23 | 40.63116 | -74.23405 | 3920 ft | 241 kts | 277° |
| 2026-05-04 18:24 | 40.63634 | -74.25550 | 4640 ft | 234 kts | 287° |
| 2026-05-04 18:24 | 40.64085 | -74.27410 | 5562 ft | 199 kts | 277° |
| 2026-05-04 18:24 | 40.64389 | -74.29184 | 5833 ft | 200 kts | 282° |
| 2026-05-04 18:24 | 40.64807 | -74.30938 | 5885 ft | 201 kts | 286° |
| 2026-05-04 18:25 | 40.65280 | -74.32678 | 5938 ft | 202 kts | 287° |